YBPN

Details ICAO YBPN (PPP)
Name Proserpine Whitsunday Coast
Region Australia
Timezone Australia/Brisbane (UTC+10.0)
Plans Departing 92
Arriving 98
Stats Elevation 82 ft / 25 m (AMSL)
Location -20.493300° 148.557000°
Runways 2
Magnetic Variation 8.043° E
Sunrise 2020-02-17 19:59:23 UTC / 2020-02-18 05:59:23 Local
Sunset 2020-02-18 08:43:05 UTC / 2020-02-18 18:43:05 Local
Advertisement - Login to hide

Runways

ID Width Length Bearing (true/mag) Surface Threshold Overrun Markings Lighting
06 98 ft / 30 m 4,104 ft / 1,251 m 67.07° / 59.03° ASPHALT 0 ft / 0 m 0 ft / 0 m NONE
11 148 ft / 45 m 6,802 ft / 2,073 m 114.60° / 106.56° ASPHALT 0 ft / 0 m 0 ft / 0 m APP EDGE THRESHOLD
24 98 ft / 30 m 4,104 ft / 1,251 m 247.07° / 239.03° ASPHALT 0 ft / 0 m 0 ft / 0 m NONE
29 148 ft / 45 m 6,802 ft / 2,073 m 294.60° / 286.55° ASPHALT 0 ft / 0 m 230 ft / 70 m APP EDGE THRESHOLD

Map

Weather


0- 5 10 15 20 25 30 35+ Temperature / °C

Clouds and Precipitation
Forecast for 2020-02-18 00:00 UTC. Updated 5 hours ago

Ground ~20,000 ft ~40,000 ft Winds

METAR

YBPN 180200Z AUTO 11006KT 9999 // SCT044 29/24 Q1008

TAF

Not found

Frequencies

Unicom 126.70 MHz CTAF
Warning: Do not use this data for real-world aviation or navigation. No guarantee of current accuracy is given.